Time;durP1;ratioP1;P1;durP2;ratioP2;P2;SDS_P1;SDS_P2;PMS_P1;PMS_P2;Temp;Humidity;BMP_temperature;BMP_pressure;BME280_temperature;BME280_humidity;BME280_pressure;Samples;Min_cycle;Max_cycle;Signal;HPM_P1;HPM_P2
2021/12/16 00:09:10;;;;;;;98.78;44.42;;;;;;;8.24;100.00;102829.72;5035254;28;20082;-83
2021/12/16 00:31:02;;;;;;;110.88;51.95;;;;;;;8.20;100.00;102835.34;5032048;28;20125;-83
2021/12/16 00:33:33;;;;;;;105.45;46.72;;;;;;;8.20;100.00;102830.88;5022911;28;20053;-84
2021/12/16 00:36:00;;;;;;;113.00;50.45;;;;;;;8.18;100.00;102831.94;5016519;28;20430;-84
2021/12/16 00:38:27;;;;;;;110.95;45.88;;;;;;;8.18;100.00;102827.44;5027962;28;20076;-82
2021/12/16 00:40:55;;;;;;;116.82;50.90;;;;;;;8.18;100.00;102837.28;5009941;28;20250;-83
2021/12/16 00:43:29;;;;;;;117.20;48.88;;;;;;;8.17;100.00;102836.44;5042386;28;20037;-83
2021/12/16 00:48:37;;;;;;;115.63;51.30;;;;;;;8.17;100.00;102836.44;5044003;28;20673;-83
2021/12/16 00:56:15;;;;;;;110.53;46.80;;;;;;;8.08;100.00;102832.50;5018939;28;20087;-83
2021/12/16 00:58:53;;;;;;;115.00;49.40;;;;;;;8.07;100.00;102836.13;5043758;28;20052;-83
2021/12/16 01:04:11;;;;;;;122.37;51.90;;;;;;;8.05;100.00;102845.22;5023373;28;20045;-83
2021/12/16 01:57:17;;;;;;;136.90;52.40;;;;;;;7.90;100.00;102879.97;5042717;28;20037;-83
2021/12/16 01:59:44;;;;;;;131.40;51.10;;;;;;;7.84;100.00;102888.38;5035708;28;20041;-83
2021/12/16 02:02:29;;;;;;;131.15;57.03;;;;;;;7.81;100.00;102883.22;5037912;28;20132;-82
2021/12/16 02:05:21;;;;;;;141.95;55.78;;;;;;;7.78;100.00;102883.44;5010641;28;20033;-83
2021/12/16 02:08:16;;;;;;;140.68;50.83;;;;;;;7.77;100.00;102888.84;5022939;28;20048;-82
2021/12/16 02:10:43;;;;;;;146.65;53.92;;;;;;;7.77;100.00;102896.88;5027574;28;20045;-83
2021/12/16 02:13:36;;;;;;;152.43;59.20;;;;;;;7.76;100.00;102898.69;5026000;28;20429;-84
2021/12/16 02:30:20;;;;;;;136.25;53.80;;;;;;;7.75;100.00;102888.97;5037502;28;20102;-83
2021/12/16 02:37:30;;;;;;;129.30;52.00;;;;;;;7.71;100.00;102887.44;5037261;28;22077;-84
2021/12/16 02:39:56;;;;;;;132.30;56.60;;;;;;;7.71;100.00;102890.13;5041749;28;20037;-83
2021/12/16 02:42:38;;;;;;;136.55;57.90;;;;;;;7.71;100.00;102898.13;5043167;28;20814;-83
2021/12/16 02:50:24;;;;;;;128.27;53.80;;;;;;;7.66;100.00;102889.53;5041748;28;20051;-83
2021/12/16 02:52:49;;;;;;;125.38;50.25;;;;;;;7.68;100.00;102898.28;5016827;28;20246;-84
2021/12/16 02:55:18;;;;;;;120.65;52.30;;;;;;;7.68;100.00;102895.63;5024517;28;20037;-84
2021/12/16 02:57:59;;;;;;;124.37;47.83;;;;;;;7.64;100.00;102894.97;5024390;28;20159;-82
2021/12/16 03:00:25;;;;;;;125.18;45.47;;;;;;;7.63;100.00;102898.59;5024239;28;20609;-83
2021/12/16 03:02:52;;;;;;;117.70;44.08;;;;;;;7.61;100.00;102892.47;5042628;28;20098;-83
2021/12/16 03:05:21;;;;;;;116.43;48.80;;;;;;;7.63;100.00;102895.06;5026456;28;20076;-83
2021/12/16 03:07:47;;;;;;;124.07;54.20;;;;;;;7.63;100.00;102889.72;5042422;28;20480;-84
2021/12/16 03:15:50;;;;;;;120.05;49.05;;;;;;;7.62;100.00;102904.91;5039652;28;20060;-83
2021/12/16 03:20:57;;;;;;;112.20;47.10;;;;;;;7.61;100.00;102915.66;5025403;28;20056;-83
2021/12/16 03:26:41;;;;;;;125.33;53.57;;;;;;;7.61;100.00;102907.66;5022883;28;20057;-83
2021/12/16 03:36:49;;;;;;;121.25;47.78;;;;;;;7.60;100.00;102921.97;5024552;28;20044;-83
2021/12/16 03:39:17;;;;;;;132.68;52.65;;;;;;;7.62;100.00;102922.72;5009591;28;20520;-83
2021/12/16 03:41:42;;;;;;;121.22;51.90;;;;;;;7.61;100.00;102929.88;5043043;28;20132;-83
2021/12/16 03:44:18;;;;;;;120.05;50.70;;;;;;;7.61;100.00;102929.03;5022085;28;20144;-83
2021/12/16 03:46:49;;;;;;;125.03;48.67;;;;;;;7.61;100.00;102934.38;5013563;28;20478;-83
2021/12/16 03:49:24;;;;;;;120.10;47.90;;;;;;;7.61;100.00;102934.38;5041749;28;20064;-83
2021/12/16 03:51:52;;;;;;;126.25;48.42;;;;;;;7.60;100.00;102927.31;5023995;28;20406;-83
2021/12/16 03:54:20;;;;;;;124.65;47.97;;;;;;;7.61;100.00;102929.03;5022403;28;20049;-83
2021/12/16 03:56:46;;;;;;;122.25;46.75;;;;;;;7.61;100.00;102935.22;5042663;28;20568;-83
2021/12/16 03:59:14;;;;;;;131.43;53.92;;;;;;;7.62;100.00;102933.41;5026375;28;20103;-82
2021/12/16 04:01:39;;;;;;;130.80;49.90;;;;;;;7.61;100.00;102919.19;5045233;28;20044;-84
2021/12/16 04:04:05;;;;;;;127.57;54.83;;;;;;;7.58;100.00;102931.88;4994703;28;20045;-83
2021/12/16 04:06:34;;;;;;;120.22;50.75;;;;;;;7.58;100.00;102931.88;5047054;28;20140;-82
2021/12/16 04:09:00;;;;;;;117.78;46.83;;;;;;;7.58;100.00;102932.75;5025753;28;20045;-83
2021/12/16 04:11:38;;;;;;;131.00;47.65;;;;;;;7.57;100.00;102932.84;5032735;28;20120;-84
2021/12/16 04:14:08;;;;;;;124.70;50.13;;;;;;;7.56;100.00;102941.81;5016092;28;20049;-84
2021/12/16 04:16:42;;;;;;;118.72;42.30;;;;;;;7.54;100.00;102933.00;5026206;28;20083;-82
2021/12/16 04:19:12;;;;;;;132.07;49.55;;;;;;;7.53;100.00;102926.81;5024204;28;20107;-83
2021/12/16 04:21:41;;;;;;;145.35;56.28;;;;;;;7.56;100.00;102936.47;5023542;28;20042;-84
2021/12/16 04:24:08;;;;;;;129.77;52.72;;;;;;;7.54;100.00;102941.91;5020448;28;20037;-85
2021/12/16 04:26:34;;;;;;;144.77;56.88;;;;;;;7.54;100.00;102943.69;5023854;28;20041;-84
2021/12/16 04:29:00;;;;;;;131.00;49.10;;;;;;;7.51;100.00;102935.88;5021864;28;20136;-83
2021/12/16 04:31:26;;;;;;;137.60;52.83;;;;;;;7.51;100.00;102941.22;5036065;28;20611;-83
2021/12/16 04:33:52;;;;;;;137.27;53.15;;;;;;;7.48;100.00;102936.94;5018014;28;20049;-84
2021/12/16 04:36:19;;;;;;;149.13;53.85;;;;;;;7.49;100.00;102930.63;5036146;28;20540;-84
2021/12/16 04:38:46;;;;;;;135.02;51.72;;;;;;;7.47;100.00;102932.53;5028169;28;20049;-84
2021/12/16 04:41:13;;;;;;;132.23;43.45;;;;;;;7.43;100.00;102933.69;5015078;28;20068;-83
2021/12/16 04:43:44;;;;;;;134.18;54.22;;;;;;;7.47;100.00;102930.72;5028843;28;20412;-83
2021/12/16 04:46:15;;;;;;;123.13;45.78;;;;;;;7.42;100.00;102930.16;5014196;28;20056;-83
2021/12/16 04:48:44;;;;;;;134.68;50.35;;;;;;;7.46;100.00;102930.81;5044759;28;20375;-84
2021/12/16 04:51:10;;;;;;;141.00;55.25;;;;;;;7.45;100.00;102929.97;5029734;28;20041;-83
2021/12/16 04:53:38;;;;;;;136.88;48.25;;;;;;;7.43;100.00;102950.56;5028468;28;20056;-83
2021/12/16 04:56:05;;;;;;;148.02;53.90;;;;;;;7.45;100.00;102948.66;5028738;28;20037;-84
2021/12/16 04:58:31;;;;;;;139.85;46.50;;;;;;;7.45;100.00;102951.34;5035043;28;20242;-84
2021/12/16 05:00:57;;;;;;;138.27;49.55;;;;;;;7.42;100.00;102951.53;5043208;28;20385;-84
2021/12/16 05:03:24;;;;;;;151.27;49.38;;;;;;;7.42;100.00;102951.53;5044400;28;20060;-84
2021/12/16 05:05:51;;;;;;;146.15;51.55;;;;;;;7.41;100.00;102964.94;5039739;28;20047;-84
2021/12/16 05:08:17;;;;;;;147.13;52.00;;;;;;;7.42;100.00;102959.53;5028038;28;20551;-84
2021/12/16 05:10:44;;;;;;;147.35;47.28;;;;;;;7.42;100.00;102939.94;5029025;28;20041;-84
2021/12/16 05:13:09;;;;;;;140.40;51.88;;;;;;;7.41;100.00;102952.44;5041230;28;20045;-84
2021/12/16 05:15:38;;;;;;;146.43;50.53;;;;;;;7.41;100.00;102965.81;5026608;28;20047;-84
2021/12/16 05:18:07;;;;;;;133.57;43.65;;;;;;;7.39;100.00;102962.38;5009882;28;20525;-84
2021/12/16 05:20:41;;;;;;;144.02;48.22;;;;;;;7.40;100.00;102961.44;5041114;28;20064;-84
2021/12/16 05:26:09;;;;;;;141.32;46.65;;;;;;;7.40;100.00;102964.09;5040987;28;20063;-84
2021/12/16 05:28:35;;;;;;;160.43;51.78;;;;;;;7.42;100.00;102962.19;5041126;28;20417;-84
2021/12/16 05:31:01;;;;;;;159.32;51.78;;;;;;;7.42;100.00;102956.88;5046099;28;20393;-84
2021/12/16 05:33:26;;;;;;;153.32;50.25;;;;;;;7.42;100.00;102956.88;5048468;28;20120;-84
2021/12/16 05:35:54;;;;;;;154.20;51.08;;;;;;;7.42;100.00;102956.88;5025623;28;20094;-84
2021/12/16 05:38:21;;;;;;;162.10;51.55;;;;;;;7.43;100.00;102957.72;5021283;28;20049;-84
2021/12/16 05:40:51;;;;;;;166.32;58.85;;;;;;;7.45;100.00;102966.47;5042075;28;20494;-84
2021/12/16 05:43:25;;;;;;;180.40;53.58;;;;;;;7.41;100.00;102965.81;5017134;28;20045;-84
2021/12/16 05:45:53;;;;;;;175.60;55.97;;;;;;;7.43;100.00;102963.91;5021744;28;20463;-84
2021/12/16 05:48:20;;;;;;;177.10;61.45;;;;;;;7.44;100.00;102970.97;5007019;28;20052;-84
2021/12/16 05:50:51;;;;;;;159.05;51.75;;;;;;;7.45;100.00;102972.72;5037943;28;20049;-84
2021/12/16 05:53:17;;;;;;;170.85;53.72;;;;;;;7.44;100.00;102970.97;5023231;28;20124;-84
2021/12/16 05:55:45;;;;;;;169.13;53.70;;;;;;;7.45;100.00;102986.06;5021241;28;20195;-84
2021/12/16 05:58:17;;;;;;;178.48;60.25;;;;;;;7.46;100.00;102995.78;5016369;28;20049;-84
2021/12/16 06:00:43;;;;;;;173.50;59.78;;;;;;;7.46;100.00;103001.13;5021303;28;20083;-84
2021/12/16 06:03:09;;;;;;;194.07;66.13;;;;;;;7.47;100.00;102993.97;5023733;28;20126;-84
2021/12/16 06:05:35;;;;;;;163.07;54.50;;;;;;;7.45;100.00;102996.75;5021717;28;20037;-84
2021/12/16 06:08:01;;;;;;;180.07;56.28;;;;;;;7.44;100.00;103005.69;5021456;28;20046;-84
2021/12/16 06:13:06;;;;;;;170.77;57.95;;;;;;;7.46;100.00;103017.16;5021372;28;20033;-84
2021/12/16 06:28:55;;;;;;;190.95;60.80;;;;;;;7.38;100.00;103030.09;5023309;28;20046;-84
2021/12/16 06:31:21;;;;;;;202.43;59.15;;;;;;;7.39;100.00;103037.19;5021488;28;20406;-84
2021/12/16 06:33:48;;;;;;;217.63;65.10;;;;;;;7.42;100.00;103049.47;5020899;28;20489;-84
2021/12/16 06:36:15;;;;;;;206.18;61.85;;;;;;;7.41;100.00;103045.94;5024853;28;20860;-84
2021/12/16 06:38:41;;;;;;;193.02;59.05;;;;;;;7.41;100.00;103047.75;4988664;28;20045;-83
2021/12/16 06:41:07;;;;;;;219.68;58.10;;;;;;;7.37;100.00;103036.41;5026083;28;20041;-83
2021/12/16 06:43:34;;;;;;;193.13;57.97;;;;;;;7.38;100.00;103042.59;5024007;28;20052;-83
2021/12/16 06:46:02;;;;;;;195.18;64.28;;;;;;;7.37;100.00;103044.41;5019545;28;20387;-84
2021/12/16 06:48:33;;;;;;;200.98;55.65;;;;;;;7.38;100.00;103039.94;5021071;28;20045;-84
2021/12/16 06:51:03;;;;;;;212.65;58.13;;;;;;;7.34;100.00;103028.56;5018501;28;20053;-84
2021/12/16 06:53:46;;;;;;;215.70;56.58;;;;;;;7.32;100.00;103027.78;5034066;28;20076;-83
2021/12/16 06:56:21;;;;;;;194.15;53.40;;;;;;;7.29;100.00;103035.97;5031639;28;20132;-83
2021/12/16 06:58:50;;;;;;;221.63;52.28;;;;;;;7.26;100.00;103028.16;5024573;28;20103;-84
2021/12/16 07:01:37;;;;;;;208.38;50.35;;;;;;;7.22;100.00;103046.16;5022990;28;20061;-83
2021/12/16 07:04:07;;;;;;;222.23;55.40;;;;;;;7.24;100.00;103038.03;5023428;28;20037;-83
2021/12/16 07:06:35;;;;;;;194.15;50.30;;;;;;;7.21;100.00;103040.88;5005349;28;20045;-83
2021/12/16 07:09:09;;;;;;;219.40;50.78;;;;;;;7.20;100.00;103044.53;5035051;28;20045;-83
2021/12/16 07:11:41;;;;;;;219.18;52.03;;;;;;;7.22;100.00;103050.63;5022746;28;20129;-83
2021/12/16 07:14:12;;;;;;;269.58;69.32;;;;;;;7.20;100.00;103053.38;5035067;28;20136;-84
2021/12/16 07:16:37;;;;;;;235.15;51.38;;;;;;;7.21;100.00;103062.25;5020970;28;20053;-83
2021/12/16 07:19:03;;;;;;;246.60;55.90;;;;;;;7.17;100.00;103063.38;5005107;28;20041;-84
2021/12/16 07:21:29;;;;;;;323.17;72.25;;;;;;;7.17;100.00;103068.72;5025602;28;20391;-84
2021/12/16 07:23:55;;;;;;;262.85;60.63;;;;;;;7.18;100.00;103078.47;5024610;28;20508;-83
2021/12/16 07:26:23;;;;;;;314.17;66.00;;;;;;;7.18;100.00;103090.00;5024057;28;20053;-83
2021/12/16 07:28:48;;;;;;;299.15;70.28;;;;;;;7.21;100.00;103095.16;5022995;28;20045;-84
2021/12/16 07:31:13;;;;;;;283.83;61.05;;;;;;;7.22;100.00;103104.03;5023932;28;20747;-83
2021/12/16 07:33:39;;;;;;;294.42;69.28;;;;;;;7.21;100.00;103100.50;5026397;28;20115;-83
2021/12/16 07:36:05;;;;;;;314.00;69.35;;;;;;;7.21;100.00;103107.66;5025615;28;20046;-84
2021/12/16 07:38:31;;;;;;;369.02;73.18;;;;;;;7.20;100.00;103116.63;5024349;28;20525;-83
2021/12/16 07:40:57;;;;;;;351.02;70.57;;;;;;;7.19;100.00;103123.78;5007807;28;20037;-83
2021/12/16 07:44:09;;;;;;;388.70;69.28;;;;;;;7.19;100.00;103114.88;5024047;28;20381;-84
2021/12/16 07:46:17;;;;;;;403.75;77.72;;;;;;;7.19;100.00;103123.78;5020292;28;20041;-84
2021/12/16 07:48:42;;;;;;;387.55;78.45;;;;;;;7.18;100.00;103135.38;5025053;28;20053;-84
2021/12/16 07:51:07;;;;;;;396.67;72.90;;;;;;;7.19;100.00;103142.47;5008435;28;20041;-84
2021/12/16 07:53:35;;;;;;;386.73;72.68;;;;;;;7.17;100.00;103148.84;5024883;28;20041;-84
2021/12/16 07:56:01;;;;;;;345.58;70.78;;;;;;;7.15;100.00;103143.56;5023026;28;20490;-83
2021/12/16 07:58:27;;;;;;;348.20;66.00;;;;;;;7.15;100.00;103156.06;5005444;28;20049;-84
2021/12/16 08:00:53;;;;;;;363.17;66.38;;;;;;;7.12;100.00;103149.09;5027143;28;20037;-84
2021/12/16 08:03:20;;;;;;;311.27;55.67;;;;;;;7.12;100.00;103145.56;5023562;28;20029;-84
2021/12/16 08:05:54;;;;;;;317.70;63.35;;;;;;;7.12;100.00;103153.56;5020431;28;20111;-84
2021/12/16 08:08:22;;;;;;;382.02;77.55;;;;;;;7.15;100.00;103150.72;5018705;28;20050;-83
2021/12/16 08:10:48;;;;;;;361.65;74.05;;;;;;;7.15;100.00;103151.59;5007494;28;20628;-84
2021/12/16 08:13:14;;;;;;;320.67;61.80;;;;;;;7.14;100.00;103141.84;5024768;28;22384;-84
2021/12/16 08:15:40;;;;;;;328.23;68.03;;;;;;;7.15;100.00;103142.72;5010999;28;20528;-84
2021/12/16 08:18:13;;;;;;;298.73;58.70;;;;;;;7.12;100.00;103151.75;5025409;28;20044;-84
2021/12/16 08:20:40;;;;;;;280.38;53.28;;;;;;;7.12;100.00;103146.41;5021416;28;20037;-84
2021/12/16 08:23:06;;;;;;;311.00;53.72;;;;;;;7.11;100.00;103144.69;5038473;28;20541;-84
2021/12/16 08:25:33;;;;;;;293.17;50.60;;;;;;;7.12;100.00;103158.91;5026540;28;20141;-84
2021/12/16 08:28:03;;;;;;;359.90;67.20;;;;;;;7.13;100.00;103157.94;5022669;28;20104;-84
2021/12/16 08:30:33;;;;;;;277.67;50.67;;;;;;;7.11;100.00;103151.84;5041634;28;20040;-84
2021/12/16 08:33:04;;;;;;;295.27;58.40;;;;;;;7.13;100.00;103152.59;5023941;28;20041;-84
2021/12/16 08:35:30;;;;;;;340.58;66.32;;;;;;;7.16;100.00;103152.44;5019790;28;20042;-84
2021/12/16 08:38:04;;;;;;;335.17;60.33;;;;;;;7.15;100.00;103150.72;5025792;28;20394;-83
2021/12/16 08:40:29;;;;;;;350.45;61.15;;;;;;;7.15;100.00;103151.59;5025223;28;20378;-84
2021/12/16 08:42:57;;;;;;;365.52;68.28;;;;;;;7.19;100.00;103160.28;5024936;28;20045;-84
2021/12/16 08:45:27;;;;;;;293.90;60.20;;;;;;;7.17;100.00;103147.03;5020866;28;20159;-83
2021/12/16 08:47:54;;;;;;;288.25;56.45;;;;;;;7.18;100.00;103159.41;5004101;28;20049;-84
2021/12/16 08:50:23;;;;;;;281.50;54.83;;;;;;;7.19;100.00;103162.94;5021057;28;20199;-83
2021/12/16 08:52:48;;;;;;;298.15;67.63;;;;;;;7.19;100.00;103168.28;5021968;28;20054;-84
2021/12/16 08:55:18;;;;;;;314.63;66.28;;;;;;;7.23;100.00;103153.84;5025943;28;20052;-84
2021/12/16 08:57:46;;;;;;;309.02;65.20;;;;;;;7.22;100.00;103152.09;5025417;28;20045;-84
2021/12/16 09:00:23;;;;;;;310.20;61.58;;;;;;;7.23;100.00;103161.84;5023315;28;20046;-84
2021/12/16 09:02:49;;;;;;;287.17;59.42;;;;;;;7.24;100.00;103160.91;5023464;28;20390;-84
2021/12/16 09:05:16;;;;;;;319.90;72.13;;;;;;;7.29;100.00;103161.50;5023593;28;20045;-84
2021/12/16 09:07:45;;;;;;;310.90;64.10;;;;;;;7.30;100.00;103165.91;5026233;28;20041;-84
2021/12/16 09:10:12;;;;;;;295.50;65.93;;;;;;;7.30;100.00;103175.72;5040202;28;20075;-84
2021/12/16 09:12:51;;;;;;;280.85;61.03;;;;;;;7.32;100.00;103180.03;5022645;28;20368;-83
2021/12/16 09:15:19;;;;;;;268.35;56.30;;;;;;;7.32;100.00;103184.53;5022227;28;20037;-84
2021/12/16 09:17:46;;;;;;;281.10;65.65;;;;;;;7.33;100.00;103192.44;5021042;28;20053;-84
2021/12/16 09:20:12;;;;;;;298.50;72.60;;;;;;;7.35;100.00;103198.56;5022000;28;20041;-84
2021/12/16 09:22:40;;;;;;;293.92;68.97;;;;;;;7.36;100.00;103196.75;5022667;28;20041;-84
2021/12/16 09:25:07;;;;;;;286.08;62.55;;;;;;;7.37;100.00;103194.00;5022308;28;20049;-84
2021/12/16 09:27:33;;;;;;;303.15;59.45;;;;;;;7.38;100.00;103198.38;5025566;28;20144;-84
2021/12/16 09:30:00;;;;;;;279.52;67.57;;;;;;;7.40;100.00;103214.34;5023181;28;20148;-84
2021/12/16 09:32:29;;;;;;;267.45;61.05;;;;;;;7.41;100.00;103214.25;5010977;28;20095;-84
2021/12/16 09:34:55;;;;;;;270.50;64.82;;;;;;;7.43;100.00;103219.53;5008536;28;20046;-84
2021/12/16 09:37:20;;;;;;;272.65;62.60;;;;;;;7.42;100.00;103213.31;5024917;28;22155;-84
2021/12/16 09:39:47;;;;;;;268.38;65.05;;;;;;;7.44;100.00;103210.53;5025579;28;20040;-84
2021/12/16 09:42:12;;;;;;;270.30;72.10;;;;;;;7.44;100.00;103210.53;5024566;28;20948;-84
2021/12/16 09:44:39;;;;;;;270.05;64.88;;;;;;;7.45;100.00;103221.16;5029021;28;20064;-84
2021/12/16 09:47:09;;;;;;;282.98;68.88;;;;;;;7.45;100.00;103218.50;5029153;28;20425;-84
2021/12/16 09:49:35;;;;;;;248.25;57.65;;;;;;;7.44;100.00;103211.41;5035660;28;20099;-84
2021/12/16 09:52:03;;;;;;;255.65;65.32;;;;;;;7.46;100.00;103214.88;5026766;28;20045;-84
2021/12/16 09:54:32;;;;;;;258.75;66.10;;;;;;;7.47;100.00;103211.22;5025165;28;20045;-84
2021/12/16 09:56:58;;;;;;;247.63;57.67;;;;;;;7.48;100.00;103217.47;5027655;28;20088;-84
2021/12/16 09:59:26;;;;;;;252.80;59.92;;;;;;;7.45;100.00;103223.84;5011885;28;20490;-84
2021/12/16 10:01:53;;;;;;;243.13;63.20;;;;;;;7.45;100.00;103218.50;5029331;28;20049;-84
2021/12/16 10:04:23;;;;;;;251.10;61.22;;;;;;;7.44;100.00;103222.09;5029432;28;20441;-84
2021/12/16 10:06:51;;;;;;;;;;;;;;;7.46;100.00;103225.53;5029122;28;20041;-83
2021/12/16 10:09:19;;;;;;;222.38;52.88;;;;;;;7.41;100.00;103222.25;5027635;28;19931;-84
2021/12/16 10:11:49;;;;;;;250.75;65.20;;;;;;;7.41;100.00;103218.72;5029811;28;20132;-84
2021/12/16 10:19:31;;;;;;;234.98;56.80;;;;;;;7.41;100.00;103235.63;5029085;28;20099;-84
2021/12/16 10:22:14;;;;;;;;;;;;;;;7.40;100.00;103225.88;5029807;28;20046;-84
2021/12/16 10:24:39;;;;;;;231.10;57.30;;;;;;;7.35;100.00;103227.09;5005624;28;19913;-84
2021/12/16 10:27:12;;;;;;;238.90;61.80;;;;;;;7.40;100.00;103231.22;5027003;28;20432;-84
2021/12/16 10:29:42;;;;;;;234.77;56.92;;;;;;;7.37;100.00;103223.38;5012493;28;20041;-84
2021/12/16 10:32:30;;;;;;;249.45;60.72;;;;;;;7.39;100.00;103231.31;5027558;28;20042;-83
2021/12/16 10:34:58;;;;;;;239.98;58.92;;;;;;;7.42;100.00;103226.69;5028068;28;20044;-84
2021/12/16 10:37:33;;;;;;;204.70;55.17;;;;;;;7.44;100.00;103231.91;5028701;28;20039;-84
2021/12/16 10:40:27;;;;;;;211.07;53.40;;;;;;;7.45;100.00;103228.28;5007711;28;20469;-84
2021/12/16 10:42:54;;;;;;;210.13;56.38;;;;;;;7.42;100.00;103229.34;5023705;28;20052;-84
2021/12/16 10:45:37;;;;;;;217.38;60.17;;;;;;;7.44;100.00;103222.09;5026878;28;20057;-84
2021/12/16 10:48:14;;;;;;;201.05;49.55;;;;;;;7.41;100.00;103226.75;5027546;28;20049;-84
2021/12/16 10:51:10;;;;;;;211.07;53.20;;;;;;;7.40;100.00;103219.69;5022840;28;20048;-83
2021/12/16 10:53:44;;;;;;;214.80;59.80;;;;;;;7.35;100.00;103227.94;5008678;28;20048;-84
2021/12/16 10:56:10;;;;;;;210.18;57.20;;;;;;;7.40;100.00;103225.88;5028434;28;20103;-84
2021/12/16 10:59:14;;;;;;;228.95;61.65;;;;;;;7.45;100.00;103229.19;5010575;28;20041;-84
2021/12/16 11:01:48;;;;;;;208.98;58.95;;;;;;;7.46;100.00;103224.69;5008405;28;20133;-84
2021/12/16 11:05:04;;;;;;;196.32;53.15;;;;;;;7.50;100.00;103217.38;5043456;28;20060;-84
2021/12/16 11:07:40;;;;;;;202.93;56.30;;;;;;;7.43;100.00;103219.53;4930945;28;20161;-84
2021/12/16 11:10:27;;;;;;;201.63;55.03;;;;;;;7.47;100.00;103221.06;5012609;28;20052;-84
2021/12/16 11:12:56;;;;;;;195.50;55.33;;;;;;;7.45;100.00;103228.28;5009945;28;20047;-84
2021/12/16 11:15:29;;;;;;;201.23;56.17;;;;;;;7.47;100.00;103229.06;5026583;28;20502;-84
2021/12/16 11:17:59;;;;;;;228.70;58.65;;;;;;;7.45;100.00;103220.28;5027504;28;20049;-84
2021/12/16 11:20:54;;;;;;;224.60;57.10;;;;;;;7.49;100.00;103229.00;5026264;28;20037;-84
2021/12/16 11:23:30;;;;;;;209.68;59.03;;;;;;;7.52;100.00;103228.84;5008751;28;20041;-84
2021/12/16 11:26:01;;;;;;;186.20;55.60;;;;;;;7.52;100.00;103228.84;5023356;28;20084;-84
2021/12/16 11:28:28;;;;;;;169.90;47.28;;;;;;;7.53;100.00;103231.41;5026969;28;20045;-84
2021/12/16 11:30:53;;;;;;;174.00;49.63;;;;;;;7.42;100.00;103228.47;5028169;28;20045;-84
2021/12/16 11:33:38;;;;;;;149.68;45.38;;;;;;;7.47;100.00;103232.59;5023132;28;20048;-83
2021/12/16 11:36:12;;;;;;;186.60;56.20;;;;;;;7.54;100.00;103240.28;5026777;28;20490;-84
2021/12/16 11:38:47;;;;;;;179.43;54.80;;;;;;;7.52;100.00;103243.06;5028675;28;20072;-84
2021/12/16 11:41:15;;;;;;;155.32;43.03;;;;;;;7.49;100.00;103245.91;5026395;28;20073;-83
2021/12/16 11:43:47;;;;;;;189.07;48.47;;;;;;;7.44;100.00;103253.28;5026245;28;20441;-83
2021/12/16 11:46:21;;;;;;;216.05;59.70;;;;;;;7.47;100.00;103253.97;5026129;28;20057;-84
2021/12/16 11:48:48;;;;;;;186.57;52.55;;;;;;;7.51;100.00;103248.47;5003378;28;20049;-83
2021/12/16 11:51:23;;;;;;;188.75;55.53;;;;;;;7.53;100.00;103246.59;5024175;28;20038;-84
2021/12/16 11:53:56;;;;;;;176.68;46.80;;;;;;;7.48;100.00;103244.19;5016864;28;20053;-83
2021/12/16 11:56:46;;;;;;;167.55;51.08;;;;;;;7.55;100.00;103250.91;5019933;28;20042;-82
2021/12/16 11:59:24;;;;;;;153.32;45.05;;;;;;;7.47;100.00;103251.31;5018220;28;20033;-83
2021/12/16 12:01:50;;;;;;;161.88;48.08;;;;;;;7.47;100.00;103247.78;5033724;28;20605;-83
2021/12/16 12:04:15;;;;;;;173.77;47.50;;;;;;;7.42;100.00;103250.72;5034004;28;20029;-83
2021/12/16 12:06:44;;;;;;;169.25;45.85;;;;;;;7.41;100.00;103248.13;5024445;28;20045;-83
2021/12/16 12:09:10;;;;;;;191.05;49.30;;;;;;;7.40;100.00;103254.41;5018958;28;20100;-84
2021/12/16 12:11:40;;;;;;;164.45;44.90;;;;;;;7.40;100.00;103259.75;5005013;28;20071;-83
2021/12/16 12:14:17;;;;;;;154.30;42.30;;;;;;;7.46;100.00;103254.09;5021050;28;20486;-84
2021/12/16 12:16:46;;;;;;;171.98;42.47;;;;;;;7.43;100.00;103262.25;5022835;28;20045;-83
2021/12/16 12:19:23;;;;;;;193.55;54.70;;;;;;;7.48;100.00;103265.56;5021088;28;20312;-83
2021/12/16 12:21:56;;;;;;;188.52;46.90;;;;;;;7.47;100.00;103272.69;5012834;28;20087;-83
2021/12/16 12:24:24;;;;;;;203.85;54.55;;;;;;;7.43;100.00;103268.47;5025171;28;20409;-83
2021/12/16 12:26:52;;;;;;;192.90;49.42;;;;;;;7.48;100.00;103265.56;5024900;28;20092;-83
2021/12/16 12:29:28;;;;;;;186.80;44.25;;;;;;;7.41;100.00;103269.50;5024295;28;20060;-83
2021/12/16 12:32:19;;;;;;;156.45;48.53;;;;;;;7.49;100.00;103272.63;5005699;28;20056;-84
2021/12/16 12:34:50;;;;;;;153.68;46.85;;;;;;;7.50;100.00;103266.31;5026134;28;20045;-84
2021/12/16 12:37:19;;;;;;;135.05;40.90;;;;;;;7.44;100.00;103267.50;5024318;28;20060;-84
2021/12/16 12:40:01;;;;;;;127.43;42.70;;;;;;;7.55;100.00;103271.41;5040023;28;20037;-84
2021/12/16 12:42:29;;;;;;;121.82;42.22;;;;;;;7.61;100.00;103277.28;5001854;28;20121;-83
2021/12/16 12:44:55;;;;;;;110.60;38.22;;;;;;;7.56;100.00;103279.34;5033372;28;20528;-82
2021/12/16 12:47:26;;;;;;;110.60;38.55;;;;;;;7.53;100.00;103273.31;5024307;28;20042;-83
2021/12/16 12:49:52;;;;;;;117.43;37.65;;;;;;;7.49;100.00;103263.75;5025878;28;20042;-82
2021/12/16 12:52:22;;;;;;;115.72;38.35;;;;;;;7.50;100.00;103266.31;5022508;28;20513;-83
2021/12/16 12:55:11;;;;;;;107.53;38.63;;;;;;;7.59;100.00;103263.13;5026071;28;20046;-84
2021/12/16 12:57:37;;;;;;;;;;;;;;;7.55;100.00;103260.72;5025130;28;20501;-83
2021/12/16 13:00:08;;;;;;;114.30;36.05;;;;;;;7.47;100.00;103258.47;5027996;28;19917;-83
2021/12/16 13:02:37;;;;;;;135.40;44.33;;;;;;;7.49;100.00;103259.25;5027037;28;20056;-83
2021/12/16 13:05:08;;;;;;;132.88;42.13;;;;;;;7.47;100.00;103253.97;5024629;28;20119;-84
2021/12/16 13:07:34;;;;;;;126.47;41.13;;;;;;;7.54;100.00;103253.63;5028305;28;20577;-83
2021/12/16 13:10:07;;;;;;;138.30;48.33;;;;;;;7.58;100.00;103250.72;5028956;28;20045;-83
2021/12/16 13:23:34;;;;;;;109.00;43.35;;;;;;;7.61;100.00;103250.56;5023532;28;20045;-84
2021/12/16 13:28:57;;;;;;;103.30;36.80;;;;;;;7.57;100.00;103237.47;5027663;28;20042;-84
2021/12/16 13:31:24;;;;;;;106.97;36.92;;;;;;;7.64;100.00;103245.03;5014181;28;20772;-84
2021/12/16 13:33:56;;;;;;;110.35;46.60;;;;;;;7.67;100.00;103247.53;5027751;28;20057;-84
2021/12/16 13:36:46;;;;;;;100.85;35.13;;;;;;;7.60;100.00;103243.50;5022892;28;20355;-84
2021/12/16 13:39:18;;;;;;;101.40;37.58;;;;;;;7.66;100.00;103248.50;5027868;28;20470;-84
2021/12/16 13:42:15;;;;;;;108.20;42.13;;;;;;;7.71;100.00;103250.94;5027580;28;20053;-83
2021/12/16 13:45:06;;;;;;;106.53;36.50;;;;;;;7.67;100.00;103246.69;5018163;28;20041;-84
2021/12/16 13:47:52;;;;;;;104.22;36.28;;;;;;;7.63;100.00;103248.66;5049220;28;20052;-84
2021/12/16 14:02:00;;;;;;;157.95;49.70;;;;;;;7.60;100.00;103254.19;5027705;28;20069;-84
2021/12/16 14:10:08;;;;;;;143.45;44.00;;;;;;;7.50;100.00;103254.75;5031112;28;20043;-84
2021/12/16 14:15:24;;;;;;;160.85;43.03;;;;;;;7.52;100.00;103247.53;5026563;28;20057;-84
2021/12/16 14:23:24;;;;;;;196.80;67.05;;;;;;;7.49;100.00;103250.38;5027838;28;20165;-84
2021/12/16 14:26:11;;;;;;;207.00;75.72;;;;;;;7.51;100.00;103251.13;5028076;28;20490;-84
2021/12/16 14:47:41;;;;;;;221.18;57.28;;;;;;;7.52;100.00;103258.22;5026464;28;20063;-84
2021/12/16 14:50:04;;;;;;;213.57;60.85;;;;;;;7.53;100.00;103265.28;5035860;28;20052;-85
2021/12/16 14:52:32;;;;;;;207.10;49.88;;;;;;;7.49;100.00;103264.59;5026243;28;20056;-84